sensor_id;sensor_type;location;lat;lon;timestamp;pressure;altitude;pressure_sealevel;temperature;humidity
46690;BME280;32423;45.398;10.874;2023-06-10T00:01:54;100360.59;;;23.51;62.12
46690;BME280;32423;45.398;10.874;2023-06-10T00:04:42;100359.41;;;23.52;61.75
46690;BME280;32423;45.398;10.874;2023-06-10T00:07:27;100370.06;;;23.53;61.57
46690;BME280;32423;45.398;10.874;2023-06-10T00:10:12;100373.31;;;23.48;62.26
46690;BME280;32423;45.398;10.874;2023-06-10T00:12:57;100369.34;;;23.42;62.50
46690;BME280;32423;45.398;10.874;2023-06-10T00:15:41;100366.66;;;23.35;62.87
46690;BME280;32423;45.398;10.874;2023-06-10T00:18:26;100360.75;;;23.29;63.16
46690;BME280;32423;45.398;10.874;2023-06-10T00:21:11;100359.19;;;23.28;63.32
46690;BME280;32423;45.398;10.874;2023-06-10T00:23:57;100356.88;;;23.20;63.49
46690;BME280;32423;45.398;10.874;2023-06-10T00:26:42;100363.69;;;23.12;64.02
46690;BME280;32423;45.398;10.874;2023-06-10T00:29:27;100360.91;;;23.12;63.43
46690;BME280;32423;45.398;10.874;2023-06-10T00:32:11;100359.28;;;23.18;64.04
46690;BME280;32423;45.398;10.874;2023-06-10T00:34:56;100360.09;;;23.15;63.97
46690;BME280;32423;45.398;10.874;2023-06-10T00:37:42;100356.56;;;23.11;64.26
46690;BME280;32423;45.398;10.874;2023-06-10T00:40:27;100357.34;;;23.11;63.82
46690;BME280;32423;45.398;10.874;2023-06-10T00:43:11;100362.47;;;23.13;64.21
46690;BME280;32423;45.398;10.874;2023-06-10T00:45:56;100360.19;;;23.04;64.55
46690;BME280;32423;45.398;10.874;2023-06-10T00:48:42;100359.00;;;23.01;64.57
46690;BME280;32423;45.398;10.874;2023-06-10T00:51:28;100365.78;;;22.97;64.27
46690;BME280;32423;45.398;10.874;2023-06-10T00:54:13;100358.66;;;22.96;64.47
46690;BME280;32423;45.398;10.874;2023-06-10T00:57:01;100360.97;;;23.05;64.68
46690;BME280;32423;45.398;10.874;2023-06-10T00:59:48;100368.13;;;23.02;65.19
46690;BME280;32423;45.398;10.874;2023-06-10T01:02:33;100369.69;;;23.03;64.73
46690;BME280;32423;45.398;10.874;2023-06-10T01:05:18;100368.53;;;23.00;64.29
46690;BME280;32423;45.398;10.874;2023-06-10T01:08:12;100368.44;;;23.11;64.16
46690;BME280;32423;45.398;10.874;2023-06-10T01:11:08;100365.25;;;23.13;64.54
46690;BME280;32423;45.398;10.874;2023-06-10T01:13:55;100368.03;;;23.13;64.71
46690;BME280;32423;45.398;10.874;2023-06-10T01:16:41;100370.84;;;23.09;64.54
46690;BME280;32423;45.398;10.874;2023-06-10T01:19:28;100379.63;;;23.00;65.11
46690;BME280;32423;45.398;10.874;2023-06-10T01:22:15;100367.00;;;22.92;65.63
46690;BME280;32423;45.398;10.874;2023-06-10T01:25:00;100367.47;;;22.84;66.00
46690;BME280;32423;45.398;10.874;2023-06-10T01:27:49;100357.97;;;22.81;66.26
46690;BME280;32423;45.398;10.874;2023-06-10T01:30:45;100366.28;;;22.85;66.28
46690;BME280;32423;45.398;10.874;2023-06-10T01:33:36;100354.75;;;22.90;66.33
46690;BME280;32423;45.398;10.874;2023-06-10T01:36:23;100357.88;;;22.92;66.21
46690;BME280;32423;45.398;10.874;2023-06-10T01:39:10;100362.66;;;22.91;65.97
46690;BME280;32423;45.398;10.874;2023-06-10T01:41:56;100368.63;;;22.90;66.76
46690;BME280;32423;45.398;10.874;2023-06-10T01:44:41;100369.88;;;22.78;67.26
46690;BME280;32423;45.398;10.874;2023-06-10T01:47:26;100369.53;;;22.73;67.39
46690;BME280;32423;45.398;10.874;2023-06-10T01:50:11;100362.00;;;22.73;67.12
46690;BME280;32423;45.398;10.874;2023-06-10T01:52:58;100360.75;;;22.81;66.66
46690;BME280;32423;45.398;10.874;2023-06-10T01:55:42;100364.34;;;22.78;67.04
46690;BME280;32423;45.398;10.874;2023-06-10T01:58:27;100363.56;;;22.74;67.22
46690;BME280;32423;45.398;10.874;2023-06-10T02:01:13;100360.81;;;22.71;67.35
46690;BME280;32423;45.398;10.874;2023-06-10T02:03:57;100350.13;;;22.69;67.47
46690;BME280;32423;45.398;10.874;2023-06-10T02:06:42;100354.88;;;22.69;67.68
46690;BME280;32423;45.398;10.874;2023-06-10T02:09:26;100346.94;;;22.67;67.60
46690;BME280;32423;45.398;10.874;2023-06-10T02:12:11;100344.97;;;22.68;67.86
46690;BME280;32423;45.398;10.874;2023-06-10T02:14:57;100342.22;;;22.64;68.09
46690;BME280;32423;45.398;10.874;2023-06-10T02:17:41;100343.06;;;22.57;68.34
46690;BME280;32423;45.398;10.874;2023-06-10T02:20:26;100343.09;;;22.54;68.39
46690;BME280;32423;45.398;10.874;2023-06-10T02:23:11;100347.06;;;22.49;68.64
46690;BME280;32423;45.398;10.874;2023-06-10T02:25:56;100338.75;;;22.46;68.94
46690;BME280;32423;45.398;10.874;2023-06-10T02:28:43;100344.66;;;22.51;69.00
46690;BME280;32423;45.398;10.874;2023-06-10T02:31:28;100342.25;;;22.57;68.41
46690;BME280;32423;45.398;10.874;2023-06-10T02:34:13;100348.59;;;22.57;67.48
46690;BME280;32423;45.398;10.874;2023-06-10T02:36:59;100349.75;;;22.64;67.01
46690;BME280;32423;45.398;10.874;2023-06-10T02:39:44;100348.53;;;22.68;66.60
46690;BME280;32423;45.398;10.874;2023-06-10T02:42:29;100335.06;;;22.70;66.43
46690;BME280;32423;45.398;10.874;2023-06-10T02:45:14;100353.59;;;22.84;65.99
46690;BME280;32423;45.398;10.874;2023-06-10T02:48:01;100350.06;;;22.80;66.05
46690;BME280;32423;45.398;10.874;2023-06-10T02:50:47;100354.06;;;22.72;65.81
46690;BME280;32423;45.398;10.874;2023-06-10T02:53:40;100359.22;;;22.66;65.86
46690;BME280;32423;45.398;10.874;2023-06-10T02:56:29;100358.84;;;22.64;65.99
46690;BME280;32423;45.398;10.874;2023-06-10T02:59:17;100361.22;;;22.62;66.45
46690;BME280;32423;45.398;10.874;2023-06-10T03:02:02;100355.72;;;22.58;67.11
46690;BME280;32423;45.398;10.874;2023-06-10T03:04:52;100362.06;;;22.59;66.98
46690;BME280;32423;45.398;10.874;2023-06-10T03:07:38;100373.16;;;22.59;67.38
46690;BME280;32423;45.398;10.874;2023-06-10T03:10:24;100366.81;;;22.58;66.97
46690;BME280;32423;45.398;10.874;2023-06-10T03:13:09;100373.94;;;22.59;66.81
46690;BME280;32423;45.398;10.874;2023-06-10T03:15:55;100364.44;;;22.57;66.64
46690;BME280;32423;45.398;10.874;2023-06-10T03:18:42;100376.38;;;22.47;66.95
46690;BME280;32423;45.398;10.874;2023-06-10T03:21:27;100377.97;;;22.44;67.63
46690;BME280;32423;45.398;10.874;2023-06-10T03:24:14;100377.94;;;22.48;68.08
46690;BME280;32423;45.398;10.874;2023-06-10T03:27:00;100369.63;;;22.48;67.85
46690;BME280;32423;45.398;10.874;2023-06-10T03:29:45;100377.94;;;22.48;67.93
46690;BME280;32423;45.398;10.874;2023-06-10T03:32:30;100382.69;;;22.51;67.60
46690;BME280;32423;45.398;10.874;2023-06-10T03:35:16;100379.91;;;22.51;67.76
46690;BME280;32423;45.398;10.874;2023-06-10T03:38:02;100388.69;;;22.39;66.75
46690;BME280;32423;45.398;10.874;2023-06-10T03:40:47;100378.78;;;22.38;66.69
46690;BME280;32423;45.398;10.874;2023-06-10T03:43:32;100383.50;;;22.41;66.29
46690;BME280;32423;45.398;10.874;2023-06-10T03:46:17;100373.22;;;22.41;66.33
46690;BME280;32423;45.398;10.874;2023-06-10T03:49:02;100385.09;;;22.42;66.84
46690;BME280;32423;45.398;10.874;2023-06-10T03:51:48;100380.75;;;22.41;67.60
46690;BME280;32423;45.398;10.874;2023-06-10T03:54:34;100377.19;;;22.40;67.85
46690;BME280;32423;45.398;10.874;2023-06-10T03:57:21;100381.97;;;22.40;68.63
46690;BME280;32423;45.398;10.874;2023-06-10T04:00:06;100382.78;;;22.33;69.22
46690;BME280;32423;45.398;10.874;2023-06-10T04:03:00;100382.81;;;22.30;68.03
46690;BME280;32423;45.398;10.874;2023-06-10T04:05:50;100385.97;;;22.21;66.39
46690;BME280;32423;45.398;10.874;2023-06-10T04:08:36;100374.09;;;22.21;66.78
46690;BME280;32423;45.398;10.874;2023-06-10T04:11:20;100376.50;;;22.18;67.76
46690;BME280;32423;45.398;10.874;2023-06-10T04:14:05;100370.16;;;22.22;67.37
46690;BME280;32423;45.398;10.874;2023-06-10T04:16:50;100372.16;;;22.17;68.19
46690;BME280;32423;45.398;10.874;2023-06-10T04:19:36;100374.13;;;22.24;67.71
46690;BME280;32423;45.398;10.874;2023-06-10T04:22:23;100372.47;;;22.30;67.78
46690;BME280;32423;45.398;10.874;2023-06-10T04:25:09;100370.94;;;22.29;67.64
46690;BME280;32423;45.398;10.874;2023-06-10T04:27:54;100374.84;;;22.32;67.38
46690;BME280;32423;45.398;10.874;2023-06-10T04:30:39;100370.50;;;22.31;66.74
46690;BME280;32423;45.398;10.874;2023-06-10T04:33:25;100365.44;;;22.18;68.89
46690;BME280;32423;45.398;10.874;2023-06-10T04:36:10;100367.78;;;22.20;68.01
46690;BME280;32423;45.398;10.874;2023-06-10T04:38:55;100370.13;;;22.25;68.44
46690;BME280;32423;45.398;10.874;2023-06-10T04:41:41;100373.28;;;22.31;68.03
46690;BME280;32423;45.398;10.874;2023-06-10T04:44:26;100372.09;;;22.32;67.99
46690;BME280;32423;45.398;10.874;2023-06-10T04:47:11;100373.69;;;22.33;67.64
46690;BME280;32423;45.398;10.874;2023-06-10T04:49:57;100370.13;;;22.32;67.80
46690;BME280;32423;45.398;10.874;2023-06-10T04:52:41;100367.34;;;22.32;67.11
46690;BME280;32423;45.398;10.874;2023-06-10T04:55:26;100371.00;;;22.11;69.29
46690;BME280;32423;45.398;10.874;2023-06-10T04:58:11;100365.41;;;22.22;68.56
46690;BME280;32423;45.398;10.874;2023-06-10T05:00:56;100365.44;;;22.18;70.17
46690;BME280;32423;45.398;10.874;2023-06-10T05:03:40;100364.25;;;22.12;70.26
46690;BME280;32423;45.398;10.874;2023-06-10T05:06:25;100365.44;;;22.11;70.44
46690;BME280;32423;45.398;10.874;2023-06-10T05:09:10;100366.94;;;22.30;69.59
46690;BME280;32423;45.398;10.874;2023-06-10T05:11:55;100370.13;;;22.29;69.43
46690;BME280;32423;45.398;10.874;2023-06-10T05:14:40;100367.72;;;22.38;69.04
46690;BME280;32423;45.398;10.874;2023-06-10T05:17:25;100371.66;;;22.37;69.20
46690;BME280;32423;45.398;10.874;2023-06-10T05:20:10;100374.09;;;22.28;68.80
46690;BME280;32423;45.398;10.874;2023-06-10T05:22:55;100373.75;;;22.18;68.65
46690;BME280;32423;45.398;10.874;2023-06-10T05:25:40;100384.38;;;22.27;67.63
46690;BME280;32423;45.398;10.874;2023-06-10T05:28:26;100383.94;;;22.39;65.86
46690;BME280;32423;45.398;10.874;2023-06-10T05:31:11;100386.28;;;22.41;66.47
46690;BME280;32423;45.398;10.874;2023-06-10T05:33:56;100384.34;;;22.38;65.33
46690;BME280;32423;45.398;10.874;2023-06-10T05:36:41;100379.94;;;22.47;64.02
46690;BME280;32423;45.398;10.874;2023-06-10T05:39:26;100383.06;;;22.53;63.30
46690;BME280;32423;45.398;10.874;2023-06-10T05:42:11;100380.38;;;22.39;63.90
46690;BME280;32423;45.398;10.874;2023-06-10T05:44:56;100375.59;;;22.43;63.08
46690;BME280;32423;45.398;10.874;2023-06-10T05:47:41;100374.06;;;22.35;62.45
46690;BME280;32423;45.398;10.874;2023-06-10T05:50:26;100370.50;;;22.34;62.53
46690;BME280;32423;45.398;10.874;2023-06-10T05:53:11;100370.06;;;22.43;62.50
46690;BME280;32423;45.398;10.874;2023-06-10T05:55:59;100368.91;;;22.37;62.42
46690;BME280;32423;45.398;10.874;2023-06-10T05:58:44;100368.47;;;22.42;61.79
46690;BME280;32423;45.398;10.874;2023-06-10T06:01:29;100370.81;;;22.47;61.58
46690;BME280;32423;45.398;10.874;2023-06-10T06:04:14;100370.81;;;22.47;61.94
46690;BME280;32423;45.398;10.874;2023-06-10T06:06:59;100372.44;;;22.44;62.60
46690;BME280;32423;45.398;10.874;2023-06-10T06:09:44;100368.47;;;22.42;62.82
46690;BME280;32423;45.398;10.874;2023-06-10T06:12:28;100381.16;;;22.43;62.96
46690;BME280;32423;45.398;10.874;2023-06-10T06:15:13;100374.03;;;22.38;63.09
46690;BME280;32423;45.398;10.874;2023-06-10T06:17:58;100368.50;;;22.38;63.63
46690;BME280;32423;45.398;10.874;2023-06-10T06:20:42;100374.81;;;22.42;64.62
46690;BME280;32423;45.398;10.874;2023-06-10T06:23:27;100380.78;;;22.37;64.82
46690;BME280;32423;45.398;10.874;2023-06-10T06:26:12;100383.50;;;22.41;64.13
46690;BME280;32423;45.398;10.874;2023-06-10T06:28:56;100383.94;;;22.39;65.01
46690;BME280;32423;45.398;10.874;2023-06-10T06:31:41;100386.69;;;22.43;65.28
46690;BME280;32423;45.398;10.874;2023-06-10T06:34:26;100392.19;;;22.50;65.88
46690;BME280;32423;45.398;10.874;2023-06-10T06:37:11;100389.03;;;22.48;66.45
46690;BME280;32423;45.398;10.874;2023-06-10T06:39:59;100385.88;;;22.49;65.90
46690;BME280;32423;45.398;10.874;2023-06-10T06:42:44;100381.50;;;22.52;65.58
46690;BME280;32423;45.398;10.874;2023-06-10T06:45:49;100381.91;;;22.47;65.94
46690;BME280;32423;45.398;10.874;2023-06-10T06:48:34;100389.41;;;22.53;66.11
46690;BME280;32423;45.398;10.874;2023-06-10T06:51:19;100387.44;;;22.50;66.76
46690;BME280;32423;45.398;10.874;2023-06-10T06:54:04;100379.50;;;22.52;67.07
46690;BME280;32423;45.398;10.874;2023-06-10T06:56:50;100390.59;;;22.52;67.58
46690;BME280;32423;45.398;10.874;2023-06-10T06:59:35;100395.31;;;22.55;67.51
46690;BME280;32423;45.398;10.874;2023-06-10T07:02:20;100397.28;;;22.58;68.33
46690;BME280;32423;45.398;10.874;2023-06-10T07:05:04;100392.91;;;22.61;68.44
46690;BME280;32423;45.398;10.874;2023-06-10T07:07:50;100394.84;;;22.78;67.46
46690;BME280;32423;45.398;10.874;2023-06-10T07:10:39;100397.22;;;22.76;68.72
46690;BME280;32423;45.398;10.874;2023-06-10T07:13:24;100400.34;;;22.85;67.89
46690;BME280;32423;45.398;10.874;2023-06-10T07:16:09;100395.09;;;22.98;66.48
46690;BME280;32423;45.398;10.874;2023-06-10T07:18:54;100392.75;;;22.93;68.45
46690;BME280;32423;45.398;10.874;2023-06-10T07:21:39;100395.50;;;22.96;68.41
46690;BME280;32423;45.398;10.874;2023-06-10T07:24:24;100391.84;;;23.07;67.22
46690;BME280;32423;45.398;10.874;2023-06-10T07:27:09;100391.72;;;23.24;67.18
46690;BME280;32423;45.398;10.874;2023-06-10T07:29:54;100383.97;;;23.53;66.61
46690;BME280;32423;45.398;10.874;2023-06-10T07:32:39;100389.78;;;23.66;66.21
46690;BME280;32423;45.398;10.874;2023-06-10T07:35:24;100390.44;;;23.80;65.07
46690;BME280;32423;45.398;10.874;2023-06-10T07:38:09;100382.16;;;23.77;65.39
46690;BME280;32423;45.398;10.874;2023-06-10T07:40:54;100390.78;;;23.82;65.40
46690;BME280;32423;45.398;10.874;2023-06-10T07:43:39;100393.91;;;23.92;64.65
46690;BME280;32423;45.398;10.874;2023-06-10T07:46:24;100394.84;;;24.12;64.02
46690;BME280;32423;45.398;10.874;2023-06-10T07:49:09;100386.81;;;24.21;63.40
46690;BME280;32423;45.398;10.874;2023-06-10T07:51:54;100376.53;;;24.18;63.16
46690;BME280;32423;45.398;10.874;2023-06-10T07:54:39;100381.44;;;24.03;63.52
46690;BME280;32423;45.398;10.874;2023-06-10T07:57:24;100370.44;;;23.96;63.96
46690;BME280;32423;45.398;10.874;2023-06-10T08:00:10;100370.25;;;24.10;63.79
46690;BME280;32423;45.398;10.874;2023-06-10T08:02:58;100368.25;;;24.11;63.31
46690;BME280;32423;45.398;10.874;2023-06-10T08:05:42;100372.47;;;24.26;63.03
46690;BME280;32423;45.398;10.874;2023-06-10T08:08:26;100379.81;;;24.40;63.00
46690;BME280;32423;45.398;10.874;2023-06-10T08:11:11;100372.81;;;24.32;63.41
46690;BME280;32423;45.398;10.874;2023-06-10T08:13:55;100376.31;;;24.36;62.36
46690;BME280;32423;45.398;10.874;2023-06-10T08:16:45;100371.16;;;24.34;63.00
46690;BME280;32423;45.398;10.874;2023-06-10T08:19:30;100380.91;;;23.81;63.51
46690;BME280;32423;45.398;10.874;2023-06-10T08:22:15;100383.22;;;23.42;65.32
46690;BME280;32423;45.398;10.874;2023-06-10T08:25:00;100381.25;;;23.42;65.15
46690;BME280;32423;45.398;10.874;2023-06-10T08:27:45;100379.31;;;23.80;63.51
46690;BME280;32423;45.398;10.874;2023-06-10T08:30:29;100377.09;;;23.17;66.79
46690;BME280;32423;45.398;10.874;2023-06-10T08:33:14;100380.69;;;23.65;67.80
46690;BME280;32423;45.398;10.874;2023-06-10T08:35:59;100381.94;;;23.95;68.93
46690;BME280;32423;45.398;10.874;2023-06-10T08:38:43;100389.28;;;24.12;69.14
46690;BME280;32423;45.398;10.874;2023-06-10T08:41:28;100382.00;;;24.25;67.42
46690;BME280;32423;45.398;10.874;2023-06-10T08:44:15;100385.13;;;24.31;65.18
46690;BME280;32423;45.398;10.874;2023-06-10T08:47:02;100383.34;;;24.44;65.72
46690;BME280;32423;45.398;10.874;2023-06-10T08:49:49;100386.88;;;24.48;63.82
46690;BME280;32423;45.398;10.874;2023-06-10T08:52:37;100392.66;;;24.60;62.05
46690;BME280;32423;45.398;10.874;2023-06-10T08:55:23;100380.25;;;24.68;59.28
46690;BME280;32423;45.398;10.874;2023-06-10T08:58:11;100383.03;;;24.68;59.99
46690;BME280;32423;45.398;10.874;2023-06-10T09:00:57;100381.59;;;24.84;59.20
46690;BME280;32423;45.398;10.874;2023-06-10T09:03:43;100374.41;;;25.13;58.28
46690;BME280;32423;45.398;10.874;2023-06-10T09:06:28;100381.31;;;25.28;57.12
46690;BME280;32423;45.398;10.874;2023-06-10T09:09:12;100381.84;;;25.43;55.44
46690;BME280;32423;45.398;10.874;2023-06-10T09:11:57;100383.38;;;25.47;54.64
46690;BME280;32423;45.398;10.874;2023-06-10T09:14:42;100387.59;;;25.32;55.27
46690;BME280;32423;45.398;10.874;2023-06-10T09:17:27;100388.09;;;25.27;55.43
46690;BME280;32423;45.398;10.874;2023-06-10T09:20:12;100390.16;;;25.23;55.03
46690;BME280;32423;45.398;10.874;2023-06-10T09:22:56;100387.50;;;24.89;55.09
46690;BME280;32423;45.398;10.874;2023-06-10T09:25:41;100391.06;;;24.90;55.14
46690;BME280;32423;45.398;10.874;2023-06-10T09:28:26;100393.09;;;24.86;54.95
46690;BME280;32423;45.398;10.874;2023-06-10T09:31:11;100385.88;;;24.92;53.86
46690;BME280;32423;45.398;10.874;2023-06-10T09:34:04;100387.22;;;25.07;53.31
46690;BME280;32423;45.398;10.874;2023-06-10T09:36:48;100394.34;;;24.81;54.16
46690;BME280;32423;45.398;10.874;2023-06-10T09:39:33;100391.63;;;24.78;53.70
46690;BME280;32423;45.398;10.874;2023-06-10T09:42:18;100382.63;;;24.97;52.81
46690;BME280;32423;45.398;10.874;2023-06-10T09:45:03;100393.03;;;24.93;51.16
46690;BME280;32423;45.398;10.874;2023-06-10T09:47:51;100383.34;;;25.01;52.88
46690;BME280;32423;45.398;10.874;2023-06-10T09:50:42;100386.22;;;25.21;53.08
46690;BME280;32423;45.398;10.874;2023-06-10T09:53:33;100390.16;;;25.23;52.78
46690;BME280;32423;45.398;10.874;2023-06-10T09:56:17;100391.16;;;25.09;52.14
46690;BME280;32423;45.398;10.874;2023-06-10T09:59:03;100385.72;;;25.02;51.60
46690;BME280;32423;45.398;10.874;2023-06-10T10:01:54;100394.47;;;25.01;51.32
46690;BME280;32423;45.398;10.874;2023-06-10T10:04:38;100390.97;;;24.97;51.60
46690;BME280;32423;45.398;10.874;2023-06-10T10:07:23;100382.94;;;25.02;50.88
46690;BME280;32423;45.398;10.874;2023-06-10T10:10:07;100390.88;;;25.04;51.16
46690;BME280;32423;45.398;10.874;2023-06-10T10:12:56;100392.88;;;25.03;51.32
46690;BME280;32423;45.398;10.874;2023-06-10T10:15:41;100393.75;;;25.20;50.57
46690;BME280;32423;45.398;10.874;2023-06-10T10:18:25;100390.03;;;25.30;50.27
46690;BME280;32423;45.398;10.874;2023-06-10T10:21:15;100383.28;;;25.51;50.10
46690;BME280;32423;45.398;10.874;2023-06-10T10:26:46;100386.28;;;26.46;47.33
46690;BME280;32423;45.398;10.874;2023-06-10T10:29:33;100382.38;;;27.12;46.33
46690;BME280;32423;45.398;10.874;2023-06-10T10:32:21;100374.97;;;27.38;45.56
46690;BME280;32423;45.398;10.874;2023-06-10T10:35:08;100375.78;;;26.70;47.10
46690;BME280;32423;45.398;10.874;2023-06-10T10:37:54;100378.25;;;26.48;48.13
46690;BME280;32423;45.398;10.874;2023-06-10T10:40:38;100368.25;;;26.51;47.98
46690;BME280;32423;45.398;10.874;2023-06-10T10:43:23;100363.59;;;26.80;47.60
46690;BME280;32423;45.398;10.874;2023-06-10T10:46:12;100362.06;;;27.11;47.05
46690;BME280;32423;45.398;10.874;2023-06-10T10:48:57;100356.84;;;27.58;45.68
46690;BME280;32423;45.398;10.874;2023-06-10T10:51:58;100366.03;;;27.59;46.02
46690;BME280;32423;45.398;10.874;2023-06-10T10:54:43;100362.63;;;28.09;44.34
46690;BME280;32423;45.398;10.874;2023-06-10T10:57:29;100376.81;;;28.31;43.77
46690;BME280;32423;45.398;10.874;2023-06-10T11:00:14;100377.66;;;28.69;42.74
46690;BME280;32423;45.398;10.874;2023-06-10T11:03:13;100386.19;;;29.63;40.02
46690;BME280;32423;45.398;10.874;2023-06-10T11:05:58;100383.41;;;29.85;39.12
46690;BME280;32423;45.398;10.874;2023-06-10T11:11:28;100385.69;;;29.43;40.10
46690;BME280;32423;45.398;10.874;2023-06-10T11:14:12;100375.84;;;29.01;40.92
46690;BME280;32423;45.398;10.874;2023-06-10T11:16:57;100378.50;;;28.28;43.54
46690;BME280;32423;45.398;10.874;2023-06-10T11:19:43;100365.78;;;28.11;42.93
46690;BME280;32423;45.398;10.874;2023-06-10T11:22:30;100366.06;;;27.10;45.46
46690;BME280;32423;45.398;10.874;2023-06-10T11:25:15;100359.13;;;26.66;46.78
46690;BME280;32423;45.398;10.874;2023-06-10T11:28:00;100360.50;;;26.58;46.72
46690;BME280;32423;45.398;10.874;2023-06-10T11:30:44;100357.81;;;26.35;47.91
46690;BME280;32423;45.398;10.874;2023-06-10T11:33:29;100359.03;;;26.14;48.67
46690;BME280;32423;45.398;10.874;2023-06-10T11:36:14;100355.88;;;26.12;48.58
46690;BME280;32423;45.398;10.874;2023-06-10T11:39:00;100354.25;;;26.15;48.48
46690;BME280;32423;45.398;10.874;2023-06-10T11:41:45;100349.00;;;26.36;48.02
46690;BME280;32423;45.398;10.874;2023-06-10T11:44:29;100356.56;;;26.72;47.06
46690;BME280;32423;45.398;10.874;2023-06-10T11:47:14;100357.31;;;26.92;46.69
46690;BME280;32423;45.398;10.874;2023-06-10T11:49:59;100360.00;;;26.79;46.86
46690;BME280;32423;45.398;10.874;2023-06-10T11:52:43;100368.00;;;26.77;46.72
46690;BME280;32423;45.398;10.874;2023-06-10T11:55:47;100358.00;;;26.80;46.14
46690;BME280;32423;45.398;10.874;2023-06-10T11:58:31;100363.22;;;26.78;46.36
46690;BME280;32423;45.398;10.874;2023-06-10T12:01:19;100351.91;;;26.85;45.77
46690;BME280;32423;45.398;10.874;2023-06-10T12:04:04;100346.31;;;26.85;46.25
46690;BME280;32423;45.398;10.874;2023-06-10T12:06:51;100338.03;;;26.29;46.95
46690;BME280;32423;45.398;10.874;2023-06-10T12:09:36;100336.09;;;25.87;49.17
46690;BME280;32423;45.398;10.874;2023-06-10T12:12:21;100336.38;;;25.73;50.03
46690;BME280;32423;45.398;10.874;2023-06-10T12:15:06;100325.44;;;25.62;49.39
46690;BME280;32423;45.398;10.874;2023-06-10T12:17:52;100316.28;;;26.01;49.27
46690;BME280;32423;45.398;10.874;2023-06-10T12:20:37;100303.00;;;25.49;49.45
46690;BME280;32423;45.398;10.874;2023-06-10T12:23:23;100296.94;;;26.82;47.14
46690;BME280;32423;45.398;10.874;2023-06-10T12:26:08;100300.28;;;28.50;43.48
46690;BME280;32423;45.398;10.874;2023-06-10T12:28:53;100284.56;;;29.50;41.34
46690;BME280;32423;45.398;10.874;2023-06-10T12:32:05;100292.47;;;28.32;43.49
46690;BME280;32423;45.398;10.874;2023-06-10T12:35:02;100276.72;;;26.46;47.78
46690;BME280;32423;45.398;10.874;2023-06-10T12:38:03;100283.75;;;25.78;49.90
46690;BME280;32423;45.398;10.874;2023-06-10T12:40:51;100283.63;;;25.42;50.34
46690;BME280;32423;45.398;10.874;2023-06-10T12:43:39;100287.66;;;25.18;51.12
46690;BME280;32423;45.398;10.874;2023-06-10T12:46:24;100287.78;;;25.11;49.85
46690;BME280;32423;45.398;10.874;2023-06-10T12:49:28;100291.53;;;25.24;50.30
46690;BME280;32423;45.398;10.874;2023-06-10T12:52:13;100275.72;;;24.94;51.71
46690;BME280;32423;45.398;10.874;2023-06-10T12:54:58;100275.91;;;24.84;52.50
46690;BME280;32423;45.398;10.874;2023-06-10T12:57:50;100269.97;;;24.82;52.80
46690;BME280;32423;45.398;10.874;2023-06-10T13:00:35;100277.06;;;24.59;53.29
46690;BME280;32423;45.398;10.874;2023-06-10T13:03:20;100281.09;;;24.82;51.39
46690;BME280;32423;45.398;10.874;2023-06-10T13:06:05;100279.94;;;24.79;52.82
46690;BME280;32423;45.398;10.874;2023-06-10T13:08:50;100273.41;;;24.93;54.19
46690;BME280;32423;45.398;10.874;2023-06-10T13:11:35;100274.41;;;24.52;54.13
46690;BME280;32423;45.398;10.874;2023-06-10T13:14:20;100267.34;;;24.48;55.24
46690;BME280;32423;45.398;10.874;2023-06-10T13:17:06;100268.06;;;24.52;55.02
46690;BME280;32423;45.398;10.874;2023-06-10T13:19:51;100253.06;;;24.46;55.62
46690;BME280;32423;45.398;10.874;2023-06-10T13:22:35;100254.41;;;24.38;56.29
46690;BME280;32423;45.398;10.874;2023-06-10T13:25:21;100258.78;;;24.35;55.82
46690;BME280;32423;45.398;10.874;2023-06-10T13:28:06;100261.31;;;24.26;56.57
46690;BME280;32423;45.398;10.874;2023-06-10T13:30:50;100250.72;;;24.17;56.41
46690;BME280;32423;45.398;10.874;2023-06-10T13:33:36;100246.75;;;24.15;56.83
46690;BME280;32423;45.398;10.874;2023-06-10T13:36:20;100254.25;;;24.18;56.67
46690;BME280;32423;45.398;10.874;2023-06-10T13:39:06;100261.41;;;24.19;56.89
46690;BME280;32423;45.398;10.874;2023-06-10T13:46:16;100267.34;;;24.21;57.25
46690;BME280;32423;45.398;10.874;2023-06-10T13:49:01;100256.94;;;24.25;56.99
46690;BME280;32423;45.398;10.874;2023-06-10T13:51:45;100256.56;;;24.23;57.35
46690;BME280;32423;45.398;10.874;2023-06-10T13:54:29;100259.34;;;24.23;57.56
46690;BME280;32423;45.398;10.874;2023-06-10T14:01:34;100248.13;;;24.30;56.89
46690;BME280;32423;45.398;10.874;2023-06-10T14:04:19;100252.97;;;24.26;56.83
46690;BME280;32423;45.398;10.874;2023-06-10T14:07:04;100254.09;;;24.28;56.62
46690;BME280;32423;45.398;10.874;2023-06-10T14:09:49;100256.25;;;24.44;56.17
46690;BME280;32423;45.398;10.874;2023-06-10T14:12:35;100259.50;;;24.39;56.13
46690;BME280;32423;45.398;10.874;2023-06-10T14:15:20;100257.19;;;24.34;56.74
46690;BME280;32423;45.398;10.874;2023-06-10T14:18:05;100259.19;;;24.34;55.87
46690;BME280;32423;45.398;10.874;2023-06-10T14:20:52;100247.28;;;24.33;56.35
46690;BME280;32423;45.398;10.874;2023-06-10T14:23:37;100242.97;;;24.32;55.97
46690;BME280;32423;45.398;10.874;2023-06-10T14:26:22;100232.19;;;24.34;56.33
46690;BME280;32423;45.398;10.874;2023-06-10T14:29:07;100225.91;;;24.30;56.57
46690;BME280;32423;45.398;10.874;2023-06-10T14:31:53;100226.53;;;24.41;55.52